LESO/EAS METAR and TAF weather

Enter ICAO airport designator
Station Type Date Time Source
LESO METAR 2020/04/05 07:00 UTC NOAA

LESO 050700Z 18013KT 150V220 CAVOK 17/02 Q1013


Station Type Date Time Source
LESO Decoded METAR 2020/04/05 07:00 UTC NOAA

San Sebastian / Fuenterrabia, Spain (LESO) 43-21N 001-48W 8M
Apr 05, 2020 - 03:00 AM EDT / 2020.04.05 0700 UTC
Wind: from the S (180 degrees) at 15 MPH (13 KT) (direction variable):0
Visibility: greater than 7 mile(s):0
Temperature: 62 F (17 C)
Dew Point: 35 F (2 C)
Relative Humidity: 36%
Pressure (altimeter): 29.91 in. Hg (1013 hPa)
ob: LESO 050700Z 18013KT 150V220 CAVOK 17/02 Q1013
cycle: 7

Station Type Date Time Source
LESO TAF 2020/04/05 06:27 UTC NOAA

TAF TAF LESO 050500Z 0506/0606 19009KT CAVOK TX23/0514Z TN08/0606Z
TEMPO 0506/0606 20015G25KT PROB30
TEMPO 0506/0524 19018G35KT
TEMPO 0600/0606 RA

Example: see airport list